Time;durP1;ratioP1;P1;durP2;ratioP2;P2;SDS_P1;SDS_P2;PMS_P1;PMS_P2;Temp;Humidity;BMP_temperature;BMP_pressure;BME280_temperature;BME280_humidity;BME280_pressure;Samples;Min_cycle;Max_cycle;Signal;HPM_P1;HPM_P2
2022/10/05 00:00:21;;;;;;;8.27;5.73;;;;;;;11.23;100.00;101099.91;696676;28;1083;-67
2022/10/05 00:01:06;;;;;;;9.18;6.15;;;;;;;11.28;100.00;101101.66;698162;28;1333;-68
2022/10/05 00:01:33;;;;;;;9.40;5.95;;;;;;;11.25;100.00;101103.38;695869;28;5259;-68
2022/10/05 00:01:53;;;;;;;9.60;6.00;;;;;;;11.28;100.00;101101.66;698610;28;1316;-67
2022/10/05 00:02:17;;;;;;;8.27;5.82;;;;;;;11.27;100.00;101099.91;699466;28;1055;-68
2022/10/05 00:02:38;;;;;;;8.13;5.78;;;;;;;11.27;100.00;101099.91;699256;28;1178;-67
2022/10/05 00:03:08;;;;;;;7.97;5.78;;;;;;;11.29;100.00;101100.78;699410;28;1257;-68
2022/10/05 00:03:35;;;;;;;9.10;5.45;;;;;;;11.31;100.00;101099.03;701101;28;1099;-67
2022/10/05 00:04:08;;;;;;;9.93;5.65;;;;;;;11.41;100.00;101103.41;699808;28;4472;-67
2022/10/05 00:04:31;;;;;;;8.90;5.82;;;;;;;11.42;100.00;101102.50;701479;28;1343;-67
2022/10/05 00:04:54;;;;;;;8.45;5.65;;;;;;;11.55;100.00;101106.88;700168;28;1213;-68
2022/10/05 00:05:31;;;;;;;7.72;5.95;;;;;;;11.54;100.00;101099.88;699406;28;1190;-68
2022/10/05 00:05:52;;;;;;;10.20;6.13;;;;;;;11.61;100.00;101099.88;698699;28;1633;-67
2022/10/05 00:06:13;;;;;;;9.38;5.97;;;;;;;11.57;100.00;101097.28;697981;28;1214;-67
2022/10/05 00:06:33;;;;;;;8.75;6.00;;;;;;;11.56;100.00;101095.53;697538;28;1321;-67
2022/10/05 00:07:08;;;;;;;8.53;5.77;;;;;;;11.57;100.00;101092.03;698539;28;4545;-67
2022/10/05 00:07:29;;;;;;;7.38;5.65;;;;;;;11.57;100.00;101099.00;700846;28;989;-67
2022/10/05 00:07:51;;;;;;;8.00;6.20;;;;;;;11.55;100.00;101090.28;700510;28;1354;-68
2022/10/05 00:08:16;;;;;;;8.02;5.80;;;;;;;11.52;100.00;101099.03;700782;28;1150;-67
2022/10/05 00:08:37;;;;;;;9.23;6.07;;;;;;;11.49;100.00;101092.91;702006;28;1444;-67
2022/10/05 00:08:59;;;;;;;8.57;5.80;;;;;;;11.47;100.00;101097.28;701226;28;1111;-66
2022/10/05 00:09:20;;;;;;;7.88;6.00;;;;;;;11.43;100.00;101093.78;699101;28;1089;-67
2022/10/05 00:09:43;;;;;;;8.15;5.90;;;;;;;11.47;100.00;101085.06;696788;28;1118;-67
2022/10/05 00:10:12;;;;;;;7.88;6.10;;;;;;;11.47;100.00;101092.06;697869;28;4531;-67
2022/10/05 00:10:33;;;;;;;8.75;5.82;;;;;;;11.43;100.00;101091.16;696009;28;1217;-68
2022/10/05 00:10:53;;;;;;;9.18;5.47;;;;;;;11.43;100.00;101091.16;698030;28;1151;-67
2022/10/05 00:11:15;;;;;;;8.90;5.67;;;;;;;11.38;100.00;101083.34;699462;28;1233;-68
2022/10/05 00:11:36;;;;;;;8.13;5.45;;;;;;;11.35;100.00;101087.69;698606;28;1486;-67
2022/10/05 00:11:56;;;;;;;9.57;5.70;;;;;;;11.32;100.00;101085.09;699782;28;1272;-67
2022/10/05 00:12:19;;;;;;;8.60;5.83;;;;;;;11.35;100.00;101087.69;698754;28;1537;-67
2022/10/05 00:12:39;;;;;;;9.40;5.90;;;;;;;11.34;100.00;101092.06;698702;28;1339;-68
2022/10/05 00:12:59;;;;;;;8.97;5.80;;;;;;;11.34;100.00;101089.44;698881;28;5222;-68
2022/10/05 00:13:26;;;;;;;8.05;5.60;;;;;;;11.37;100.00;101091.19;699715;28;1043;-67
2022/10/05 00:13:46;;;;;;;9.23;5.63;;;;;;;11.44;100.00;101085.06;698446;28;1366;-67
2022/10/05 00:14:18;;;;;;;8.25;5.50;;;;;;;11.41;100.00;101085.94;699738;28;1969;-66
2022/10/05 00:14:39;;;;;;;8.18;5.80;;;;;;;11.39;100.00;101089.44;697032;28;1169;-68
2022/10/05 00:15:00;;;;;;;9.57;6.27;;;;;;;11.43;100.00;101085.06;698195;28;1105;-68
2022/10/05 00:15:21;;;;;;;8.60;5.75;;;;;;;11.41;100.00;101092.94;698803;28;1070;-67
2022/10/05 00:15:42;;;;;;;8.80;5.50;;;;;;;11.40;100.00;101081.56;698564;28;1067;-68
2022/10/05 00:16:14;;;;;;;10.82;5.97;;;;;;;11.37;100.00;101083.34;698236;28;4271;-68
2022/10/05 00:16:34;;;;;;;7.45;5.40;;;;;;;11.35;100.00;101090.31;696426;28;1130;-67
2022/10/05 00:16:55;;;;;;;7.93;5.50;;;;;;;11.30;100.00;101078.97;699827;28;1324;-68
2022/10/05 00:17:25;;;;;;;8.32;5.38;;;;;;;11.25;100.00;101081.59;697303;28;1690;-68
2022/10/05 00:17:46;;;;;;;7.68;5.25;;;;;;;11.23;100.00;101084.22;696227;28;1075;-68
2022/10/05 00:18:14;;;;;;;9.50;5.40;;;;;;;11.23;100.00;101081.59;696556;28;1084;-67
2022/10/05 00:18:34;;;;;;;7.40;5.45;;;;;;;11.21;100.00;101088.56;696558;28;1237;-67
2022/10/05 00:18:55;;;;;;;7.87;5.27;;;;;;;11.21;100.00;101085.09;695785;28;4382;-67
2022/10/05 00:19:22;;;;;;;7.78;5.45;;;;;;;11.34;100.00;101084.22;698154;28;1464;-68
2022/10/05 00:19:43;;;;;;;11.25;6.05;;;;;;;11.46;100.00;101079.81;698805;28;1035;-67
2022/10/05 00:20:18;;;;;;;10.13;5.90;;;;;;;11.45;100.00;101084.19;697006;28;1047;-66
2022/10/05 00:20:40;;;;;;;7.85;5.40;;;;;;;11.50;100.00;101077.19;697134;28;1158;-67
2022/10/05 00:21:00;;;;;;;8.70;5.47;;;;;;;11.62;100.00;101075.44;698559;28;1313;-67
2022/10/05 00:21:25;;;;;;;9.48;5.60;;;;;;;11.61;100.00;101085.03;697979;28;1210;-67
2022/10/05 00:21:46;;;;;;;9.85;5.57;;;;;;;11.57;100.00;101084.19;699751;28;1117;-67
2022/10/05 00:22:16;;;;;;;7.95;5.85;;;;;;;11.50;100.00;101082.44;697170;28;4277;-68
2022/10/05 00:22:36;;;;;;;7.45;5.57;;;;;;;11.52;100.00;101078.06;698438;28;1428;-67
2022/10/05 00:23:01;;;;;;;8.52;5.80;;;;;;;11.48;100.00;101078.97;698710;28;1506;-67
2022/10/05 00:23:24;;;;;;;8.45;5.70;;;;;;;11.44;100.00;101082.44;698349;28;1128;-68
2022/10/05 00:23:45;;;;;;;9.63;6.10;;;;;;;11.42;100.00;101084.19;697644;28;1178;-67
2022/10/05 00:24:09;;;;;;;10.00;6.32;;;;;;;11.55;100.00;101082.44;699273;28;1340;-67
2022/10/05 00:24:29;;;;;;;10.13;5.60;;;;;;;11.53;100.00;101079.81;698408;28;1222;-68
2022/10/05 00:24:55;;;;;;;7.77;5.60;;;;;;;11.54;100.00;101081.53;696794;28;4289;-67
2022/10/05 00:25:19;;;;;;;7.68;5.70;;;;;;;11.51;100.00;101078.94;697834;28;1253;-67
2022/10/05 00:25:40;;;;;;;7.13;5.30;;;;;;;11.59;100.00;101079.78;697959;28;1232;-68
2022/10/05 00:26:10;;;;;;;8.70;5.57;;;;;;;11.58;100.00;101075.44;699202;28;1117;-67
2022/10/05 00:26:32;;;;;;;9.80;5.93;;;;;;;11.56;100.00;101077.19;697466;28;1181;-66
2022/10/05 00:26:52;;;;;;;9.88;5.80;;;;;;;11.56;100.00;101077.19;698031;28;1342;-68
2022/10/05 00:27:15;;;;;;;11.05;5.90;;;;;;;11.64;100.00;101081.53;698397;28;1396;-67
2022/10/05 00:27:37;;;;;;;10.73;5.70;;;;;;;11.79;100.00;101083.25;699241;28;1440;-67
2022/10/05 00:27:59;;;;;;;9.02;5.78;;;;;;;11.86;100.00;101079.72;698959;28;5308;-67
2022/10/05 00:28:29;;;;;;;8.68;5.68;;;;;;;11.93;100.00;101076.19;697018;28;1972;-68
2022/10/05 00:28:49;;;;;;;9.30;5.70;;;;;;;11.85;100.00;101083.22;695973;28;1163;-66
2022/10/05 00:29:37;;;;;;;8.95;5.80;;;;;;;11.69;100.00;101074.53;693443;28;1251;-68
2022/10/05 00:30:06;;;;;;;8.25;5.88;;;;;;;11.63;100.00;101071.94;689992;28;1888;-67
2022/10/05 00:30:31;;;;;;;8.63;5.40;;;;;;;11.57;100.00;101078.94;690888;28;1311;-67
2022/10/05 00:30:56;;;;;;;7.30;5.50;;;;;;;11.53;100.00;101076.31;695075;28;4438;-66
2022/10/05 00:31:22;;;;;;;8.20;5.60;;;;;;;11.52;100.00;101072.84;695648;28;1531;-66
2022/10/05 00:31:43;;;;;;;9.93;5.65;;;;;;;11.51;100.00;101078.94;694638;28;1235;-68
2022/10/05 00:32:03;;;;;;;9.07;5.50;;;;;;;11.48;100.00;101072.81;695845;28;1324;-68
2022/10/05 00:32:24;;;;;;;8.80;5.70;;;;;;;11.46;100.00;101080.69;697605;28;1101;-68
2022/10/05 00:32:44;;;;;;;8.60;5.65;;;;;;;11.46;100.00;101080.69;698226;28;1110;-68
2022/10/05 00:33:05;;;;;;;8.60;5.70;;;;;;;11.45;100.00;101073.72;695393;28;1404;-67
2022/10/05 00:33:26;;;;;;;8.18;5.90;;;;;;;11.44;100.00;101071.97;692797;28;1400;-68
2022/10/05 00:33:47;;;;;;;8.05;5.90;;;;;;;11.45;100.00;101076.34;695541;28;4600;-66
2022/10/05 00:34:08;;;;;;;9.52;5.82;;;;;;;11.45;100.00;101073.72;692523;28;1910;-68
2022/10/05 00:34:28;;;;;;;9.30;5.70;;;;;;;11.44;100.00;101071.09;693543;28;1065;-68
2022/10/05 00:34:49;;;;;;;8.90;5.73;;;;;;;11.42;100.00;101078.94;694182;28;1143;-67
2022/10/05 00:35:10;;;;;;;9.30;5.70;;;;;;;11.41;100.00;101072.00;690131;28;1445;-67
2022/10/05 00:35:34;;;;;;;7.85;5.82;;;;;;;11.40;100.00;101070.25;690013;28;1132;-67
2022/10/05 00:35:54;;;;;;;9.40;6.13;;;;;;;11.46;100.00;101074.59;690670;28;1506;-67
2022/10/05 00:36:15;;;;;;;8.32;5.70;;;;;;;11.42;100.00;101071.09;690885;28;1321;-68
2022/10/05 00:36:38;;;;;;;7.65;5.90;;;;;;;11.56;100.00;101077.19;688070;28;1402;-67
2022/10/05 00:36:58;;;;;;;9.25;6.00;;;;;;;11.54;100.00;101073.69;690175;28;4491;-67
2022/10/05 00:37:18;;;;;;;9.15;6.00;;;;;;;11.58;100.00;101075.44;696004;28;1110;-67
2022/10/05 00:37:40;;;;;;;8.43;5.83;;;;;;;11.69;100.00;101072.78;698669;28;1130;-66
2022/10/05 00:38:00;;;;;;;8.23;5.43;;;;;;;11.70;100.00;101073.66;698340;28;1165;-68
2022/10/05 00:38:21;;;;;;;9.07;5.90;;;;;;;11.77;100.00;101067.53;697844;28;1138;-66
2022/10/05 00:38:42;;;;;;;9.20;5.70;;;;;;;11.78;100.00;101068.41;698825;28;1075;-66
2022/10/05 00:39:02;;;;;;;8.45;5.70;;;;;;;11.81;100.00;101071.00;698359;28;1079;-67
2022/10/05 00:39:23;;;;;;;8.00;5.70;;;;;;;11.82;100.00;101078.84;697392;28;1297;-67
2022/10/05 00:39:44;;;;;;;8.30;5.63;;;;;;;11.76;100.00;101068.41;699818;28;1219;-67
2022/10/05 00:40:12;;;;;;;7.70;5.40;;;;;;;11.79;100.00;101073.63;697582;28;4578;-67
2022/10/05 00:40:54;;;;;;;7.28;5.75;;;;;;;11.81;100.00;101076.25;695502;28;1433;-66
2022/10/05 00:41:21;;;;;;;7.97;5.63;;;;;;;11.76;100.00;101069.28;694933;28;1659;-67
2022/10/05 00:42:09;;;;;;;8.23;5.95;;;;;;;11.69;100.00;101067.56;694169;28;1255;-67
2022/10/05 00:42:48;;;;;;;8.50;6.05;;;;;;;11.60;100.00;101067.56;697042;28;1242;-67
2022/10/05 00:43:18;;;;;;;8.77;5.90;;;;;;;11.53;100.00;101066.72;695347;28;4793;-67
2022/10/05 00:43:50;;;;;;;9.20;5.95;;;;;;;11.53;100.00;101069.34;695863;28;1259;-67
2022/10/05 00:44:32;;;;;;;8.60;5.90;;;;;;;11.48;100.00;101068.47;695138;28;1416;-68
2022/10/05 00:45:02;;;;;;;8.90;5.97;;;;;;;11.48;100.00;101072.81;696452;28;1247;-66
2022/10/05 00:45:53;;;;;;;7.75;5.80;;;;;;;11.46;100.00;101066.72;697860;28;1090;-68
2022/10/05 00:46:13;;;;;;;8.18;5.88;;;;;;;11.47;100.00;101068.50;690154;28;4761;-67
2022/10/05 00:47:12;;;;;;;8.17;5.67;;;;;;;11.43;100.00;101069.38;698332;28;1456;-67
2022/10/05 00:48:03;;;;;;;8.73;6.15;;;;;;;11.51;100.00;101068.47;695817;28;1305;-67
2022/10/05 00:48:38;;;;;;;9.32;5.95;;;;;;;11.51;100.00;101065.84;698002;28;1091;-67
2022/10/05 00:49:08;;;;;;;9.30;5.72;;;;;;;11.50;100.00;101071.09;696931;28;4309;-67
2022/10/05 00:49:44;;;;;;;9.75;5.70;;;;;;;11.43;100.00;101070.22;698708;28;1452;-67
2022/10/05 00:50:26;;;;;;;7.95;5.85;;;;;;;11.44;100.00;101065.84;697296;28;1328;-67
2022/10/05 00:51:13;;;;;;;8.88;5.93;;;;;;;11.44;100.00;101066.75;696714;28;1827;-67
2022/10/05 00:51:36;;;;;;;9.13;5.50;;;;;;;11.39;100.00;101068.50;684552;28;1256;-67
2022/10/05 00:52:33;;;;;;;9.10;5.90;;;;;;;11.52;100.00;101066.72;692026;28;4532;-67
2022/10/05 00:53:11;;;;;;;8.27;5.95;;;;;;;11.46;100.00;101072.84;692355;28;1723;-66
2022/10/05 00:53:59;;;;;;;8.25;6.00;;;;;;;11.44;100.00;101065.84;696210;28;1151;-67
2022/10/05 00:54:42;;;;;;;9.93;5.65;;;;;;;11.62;100.00;101067.59;698475;28;1231;-66
2022/10/05 00:55:12;;;;;;;9.35;5.97;;;;;;;11.58;100.00;101071.94;697336;28;4320;-67
2022/10/05 00:56:02;;;;;;;7.88;5.57;;;;;;;11.50;100.00;101071.94;692943;28;1243;-67
2022/10/05 00:56:32;;;;;;;9.93;5.75;;;;;;;11.54;100.00;101073.69;684291;28;1360;-68
2022/10/05 00:57:30;;;;;;;8.30;5.75;;;;;;;11.61;100.00;101074.56;681710;29;1290;-66
2022/10/05 00:58:02;;;;;;;10.00;5.70;;;;;;;11.59;100.00;101076.31;677082;29;4581;-68
2022/10/05 00:58:59;;;;;;;9.35;5.65;;;;;;;11.52;100.00;101078.06;688134;28;1728;-67
2022/10/05 00:59:53;;;;;;;8.50;5.50;;;;;;;11.57;100.00;101073.72;692475;28;1256;-67
2022/10/05 01:00:21;;;;;;;9.15;5.82;;;;;;;11.63;100.00;101070.19;693223;28;1387;-66
2022/10/05 01:01:12;;;;;;;9.65;5.72;;;;;;;11.54;100.00;101068.44;694987;28;1135;-67
2022/10/05 01:01:52;;;;;;;9.18;5.75;;;;;;;11.53;100.00;101078.94;686738;28;5061;-66
2022/10/05 01:02:33;;;;;;;8.20;5.60;;;;;;;11.45;100.00;101081.59;689450;28;1250;-67
2022/10/05 01:02:56;;;;;;;7.95;5.82;;;;;;;11.43;100.00;101075.47;690043;28;1334;-67
2022/10/05 01:03:39;;;;;;;8.48;5.80;;;;;;;11.39;100.00;101077.22;695468;28;2017;-67
2022/10/05 01:04:03;;;;;;;7.85;5.60;;;;;;;11.39;100.00;101076.34;690093;28;4393;-68
2022/10/05 01:04:43;;;;;;;8.45;5.65;;;;;;;11.37;100.00;101078.09;689587;28;1475;-67
2022/10/05 01:05:22;;;;;;;8.85;5.90;;;;;;;11.38;100.00;101071.97;694751;28;1315;-66
2022/10/05 01:05:49;;;;;;;7.93;5.80;;;;;;;11.39;100.00;101074.63;694424;28;1154;-66
2022/10/05 01:06:21;;;;;;;8.43;5.53;;;;;;;11.37;100.00;101065.88;693689;28;1290;-67
2022/10/05 01:07:07;;;;;;;8.05;5.40;;;;;;;11.40;100.00;101070.25;691955;28;1390;-68
2022/10/05 01:07:41;;;;;;;8.20;5.60;;;;;;;11.40;100.00;101070.25;692556;28;4955;-67
2022/10/05 01:08:40;;;;;;;8.00;5.50;;;;;;;11.35;100.00;101075.50;695979;28;1051;-67
2022/10/05 01:09:12;;;;;;;8.00;5.57;;;;;;;11.34;100.00;101071.13;695947;28;1087;-67
2022/10/05 01:09:40;;;;;;;7.85;5.47;;;;;;;11.32;100.00;101079.84;691876;28;2376;-66
2022/10/05 01:10:15;;;;;;;8.90;5.53;;;;;;;11.29;100.00;101075.47;693072;28;4293;-67
2022/10/05 01:10:50;;;;;;;6.97;5.18;;;;;;;11.28;100.00;101075.50;692089;28;1416;-66
2022/10/05 01:11:20;;;;;;;8.25;5.38;;;;;;;11.28;100.00;101072.88;695880;28;1230;-67
2022/10/05 01:11:50;;;;;;;8.82;5.50;;;;;;;11.36;100.00;101073.75;695391;28;1523;-67
2022/10/05 01:12:25;;;;;;;7.53;5.60;;;;;;;11.41;100.00;101066.75;696149;28;1201;-67
2022/10/05 01:12:48;;;;;;;8.95;5.35;;;;;;;11.39;100.00;101068.50;693965;28;3956;-68
2022/10/05 01:13:14;;;;;;;9.13;5.35;;;;;;;11.39;100.00;101068.50;694655;28;4851;-67
2022/10/05 01:13:59;;;;;;;8.00;5.53;;;;;;;11.40;100.00;101067.63;696926;28;1265;-67
2022/10/05 01:14:30;;;;;;;8.60;5.35;;;;;;;11.37;100.00;101065.88;696408;28;1190;-67
2022/10/05 01:15:08;;;;;;;7.10;5.30;;;;;;;11.35;100.00;101072.88;697771;28;1154;-67
2022/10/05 01:15:45;;;;;;;7.60;5.50;;;;;;;11.39;100.00;101069.38;692964;28;1372;-67
2022/10/05 01:16:27;;;;;;;9.73;5.65;;;;;;;11.44;100.00;101066.75;692675;28;4382;-67
2022/10/05 01:16:54;;;;;;;9.70;5.50;;;;;;;11.44;100.00;101071.09;694963;28;1415;-67
2022/10/05 01:17:22;;;;;;;9.85;5.50;;;;;;;11.43;100.00;101064.13;696364;28;1262;-67
2022/10/05 01:18:12;;;;;;;8.52;5.80;;;;;;;11.40;100.00;101065.00;698817;28;1075;-67
2022/10/05 01:19:00;;;;;;;9.63;5.50;;;;;;;11.38;100.00;101065.00;690584;28;1419;-68
2022/10/05 01:19:32;;;;;;;8.50;5.50;;;;;;;11.39;100.00;101068.50;697215;28;5073;-67
2022/10/05 01:20:18;;;;;;;7.50;5.45;;;;;;;11.52;100.00;101075.47;698272;28;1004;-66
2022/10/05 01:20:38;;;;;;;8.18;5.40;;;;;;;11.47;100.00;101065.88;698169;28;1130;-65
2022/10/05 01:21:09;;;;;;;7.57;5.43;;;;;;;11.44;100.00;101065.84;699902;28;1209;-68
2022/10/05 01:21:37;;;;;;;8.70;5.32;;;;;;;11.45;100.00;101065.88;695967;28;1234;-66
2022/10/05 01:22:13;;;;;;;8.73;5.22;;;;;;;11.46;100.00;101071.97;696063;28;4454;-68
2022/10/05 01:22:55;;;;;;;8.30;5.38;;;;;;;11.48;100.00;101063.25;696719;28;1241;-67
2022/10/05 01:23:45;;;;;;;8.32;5.60;;;;;;;11.45;100.00;101071.13;697380;28;1406;-68
2022/10/05 01:24:29;;;;;;;7.75;5.50;;;;;;;11.49;100.00;101059.75;696865;28;1189;-68
2022/10/05 01:24:59;;;;;;;9.18;5.70;;;;;;;11.46;100.00;101070.22;697529;28;4633;-67
2022/10/05 01:25:48;;;;;;;8.50;5.53;;;;;;;11.52;100.00;101070.22;695983;28;1087;-66
2022/10/05 01:26:24;;;;;;;8.55;5.50;;;;;;;11.51;100.00;101063.22;697784;28;1064;-66
2022/10/05 01:27:06;;;;;;;8.93;5.30;;;;;;;11.46;100.00;101067.59;694595;28;1390;-67
2022/10/05 01:27:35;;;;;;;7.63;5.72;;;;;;;11.44;100.00;101069.34;692414;28;1359;-67
2022/10/05 01:28:06;;;;;;;6.95;5.00;;;;;;;11.47;100.00;101064.13;692663;28;4460;-67
2022/10/05 01:28:47;;;;;;;8.02;5.72;;;;;;;11.47;100.00;101066.72;692329;28;1199;-67
2022/10/05 01:29:26;;;;;;;10.35;5.53;;;;;;;11.43;100.00;101061.50;692176;28;1708;-67
2022/10/05 01:29:56;;;;;;;8.32;5.68;;;;;;;11.44;100.00;101063.22;691248;28;1593;-67
2022/10/05 01:30:19;;;;;;;7.25;5.70;;;;;;;11.40;100.00;101060.63;689206;28;1465;-67
2022/10/05 01:30:50;;;;;;;9.02;5.40;;;;;;;11.45;100.00;101060.63;688531;28;1514;-67
2022/10/05 01:31:10;;;;;;;8.38;5.75;;;;;;;11.55;100.00;101064.97;692146;28;4770;-67
2022/10/05 01:31:37;;;;;;;8.10;5.73;;;;;;;11.54;100.00;101063.22;691350;28;1152;-67
2022/10/05 01:32:09;;;;;;;9.57;5.75;;;;;;;11.49;100.00;101061.50;694468;28;1449;-67
2022/10/05 01:33:01;;;;;;;9.80;5.70;;;;;;;11.43;100.00;101059.75;697865;28;1304;-67
2022/10/05 01:33:32;;;;;;;8.05;5.60;;;;;;;11.44;100.00;101064.13;691122;28;1242;-66
2022/10/05 01:34:11;;;;;;;10.43;5.63;;;;;;;11.41;100.00;101066.75;691318;28;4331;-68
2022/10/05 01:34:40;;;;;;;8.90;5.85;;;;;;;11.61;100.00;101065.84;696666;28;1300;-66
2022/10/05 01:35:32;;;;;;;7.80;5.20;;;;;;;11.62;100.00;101063.22;698002;28;1082;-67
2022/10/05 01:36:04;;;;;;;7.60;5.30;;;;;;;11.53;100.00;101061.50;696850;28;1308;-66
2022/10/05 01:36:36;;;;;;;9.02;5.70;;;;;;;11.46;100.00;101064.13;691833;28;1141;-66
2022/10/05 01:37:09;;;;;;;7.18;5.65;;;;;;;11.43;100.00;101062.38;690390;28;4510;-67
2022/10/05 01:38:15;;;;;;;8.13;5.60;;;;;;;11.40;100.00;101057.16;691433;28;1056;-67
2022/10/05 01:39:00;;;;;;;7.63;5.45;;;;;;;11.32;100.00;101064.16;698093;28;1400;-68
2022/10/05 01:39:48;;;;;;;7.68;5.60;;;;;;;11.24;100.00;101065.03;698057;28;2507;-67
2022/10/05 01:40:46;;;;;;;9.05;5.85;;;;;;;11.25;100.00;101055.41;696848;28;5441;-66
2022/10/05 01:41:39;;;;;;;8.75;5.70;;;;;;;11.41;100.00;101065.00;695522;28;1528;-66
2022/10/05 01:42:09;;;;;;;8.35;6.05;;;;;;;11.36;100.00;101058.88;698079;28;1150;-67
2022/10/05 01:42:52;;;;;;;7.25;5.18;;;;;;;11.33;100.00;101060.66;696435;28;2007;-67
2022/10/05 01:43:25;;;;;;;9.23;5.88;;;;;;;11.39;100.00;101055.41;699205;28;4991;-66
2022/10/05 01:43:51;;;;;;;8.77;6.05;;;;;;;11.54;100.00;101054.50;700236;28;1234;-67
2022/10/05 01:44:32;;;;;;;9.73;5.90;;;;;;;11.55;100.00;101062.34;694893;28;1278;-68
2022/10/05 01:45:23;;;;;;;7.93;5.65;;;;;;;11.50;100.00;101056.25;690158;28;1241;-67
2022/10/05 01:46:03;;;;;;;7.97;5.70;;;;;;;11.41;100.00;101054.53;692179;28;1448;-67
2022/10/05 01:46:32;;;;;;;9.05;6.00;;;;;;;11.41;100.00;101051.06;697502;28;6395;-67
2022/10/05 01:47:04;;;;;;;8.95;6.13;;;;;;;11.37;100.00;101049.31;698587;28;1060;-68
2022/10/05 01:47:45;;;;;;;8.27;6.00;;;;;;;11.33;100.00;101050.19;698655;28;1177;-67
2022/10/05 01:48:27;;;;;;;9.10;6.00;;;;;;;11.34;100.00;101049.28;697688;28;1119;-67
2022/10/05 01:49:10;;;;;;;8.68;5.95;;;;;;;11.32;100.00;101053.66;697295;28;4346;-66
2022/10/05 01:49:44;;;;;;;9.32;6.00;;;;;;;11.28;100.00;101044.94;700096;28;1228;-66
2022/10/05 01:50:20;;;;;;;9.80;6.20;;;;;;;11.28;100.00;101049.31;696116;28;1153;-66
2022/10/05 01:51:04;;;;;;;9.25;6.18;;;;;;;11.35;100.00;101046.69;695541;28;1041;-67
2022/10/05 01:51:51;;;;;;;8.05;6.10;;;;;;;11.51;100.00;101050.13;695566;28;1119;-66
2022/10/05 01:52:27;;;;;;;7.97;5.80;;;;;;;11.44;100.00;101043.19;692684;28;6538;-67
2022/10/05 01:53:04;;;;;;;8.85;6.32;;;;;;;11.40;100.00;101044.91;695565;28;1525;-67
2022/10/05 01:53:37;;;;;;;8.38;6.20;;;;;;;11.32;100.00;101046.69;694958;28;1214;-67
2022/10/05 01:54:03;;;;;;;9.02;6.00;;;;;;;11.33;100.00;101043.19;695570;28;1981;-67
2022/10/05 01:54:47;;;;;;;9.52;5.93;;;;;;;11.39;100.00;101044.94;694748;28;1325;-66
2022/10/05 01:55:10;;;;;;;8.10;6.00;;;;;;;11.44;100.00;101042.28;696090;28;5411;-66
2022/10/05 01:55:58;;;;;;;8.20;5.88;;;;;;;11.41;100.00;101036.19;697976;28;1261;-66
2022/10/05 01:56:38;;;;;;;10.70;5.97;;;;;;;11.35;100.00;101041.47;697504;28;1118;-66
2022/10/05 01:57:26;;;;;;;8.55;6.10;;;;;;;11.34;100.00;101044.94;698562;28;1341;-66
2022/10/05 01:58:15;;;;;;;8.45;6.35;;;;;;;11.32;100.00;101040.59;698203;28;1285;-67
2022/10/05 01:58:54;;;;;;;8.45;6.07;;;;;;;11.31;100.00;101034.50;686228;28;6386;-67
2022/10/05 01:59:28;;;;;;;9.73;6.03;;;;;;;11.33;100.00;101037.09;683140;28;1364;-67
2022/10/05 01:59:58;;;;;;;9.10;5.97;;;;;;;11.32;100.00;101037.97;697251;28;1346;-66
2022/10/05 02:00:19;;;;;;;9.45;6.00;;;;;;;11.34;100.00;101039.72;697203;28;1491;-67
2022/10/05 02:01:03;;;;;;;8.90;6.00;;;;;;;11.33;100.00;101037.09;692115;28;1182;-67
2022/10/05 02:01:35;;;;;;;7.80;5.97;;;;;;;11.39;100.00;101042.31;694690;28;4914;-67
2022/10/05 02:02:03;;;;;;;9.43;6.20;;;;;;;11.35;100.00;101041.47;695171;28;1484;-66
2022/10/05 02:02:25;;;;;;;8.82;5.82;;;;;;;11.34;100.00;101039.72;691679;28;1005;-67
2022/10/05 02:02:51;;;;;;;9.23;6.13;;;;;;;11.32;100.00;101041.44;692891;28;1230;-66
2022/10/05 02:03:18;;;;;;;8.38;6.18;;;;;;;11.36;100.00;101039.72;692077;28;1096;-67
2022/10/05 02:03:52;;;;;;;8.32;6.32;;;;;;;11.35;100.00;101045.81;690616;28;1292;-66
2022/10/05 02:04:25;;;;;;;9.88;6.10;;;;;;;11.31;100.00;101041.44;692673;28;5893;-67
2022/10/05 02:04:54;;;;;;;9.48;6.07;;;;;;;11.36;100.00;101037.09;694328;28;1420;-66
2022/10/05 02:05:23;;;;;;;7.93;5.88;;;;;;;11.33;100.00;101037.97;694187;28;1210;-65
2022/10/05 02:06:09;;;;;;;10.13;6.00;;;;;;;11.45;100.00;101047.56;698223;28;1130;-67
2022/10/05 02:06:34;;;;;;;9.07;6.30;;;;;;;11.44;100.00;101034.44;697496;28;1159;-66
2022/10/05 02:06:56;;;;;;;8.25;6.38;;;;;;;11.43;100.00;101033.56;698478;28;4424;-67
2022/10/05 02:07:23;;;;;;;7.80;5.97;;;;;;;11.52;100.00;101030.94;697440;28;1423;-66
2022/10/05 02:07:59;;;;;;;8.30;6.20;;;;;;;11.49;100.00;101033.59;697017;28;1427;-67
2022/10/05 02:08:36;;;;;;;9.00;6.40;;;;;;;11.45;100.00;101030.94;693482;28;1414;-67
2022/10/05 02:09:19;;;;;;;8.35;6.20;;;;;;;11.40;100.00;101030.97;692093;28;3683;-67
2022/10/05 02:09:52;;;;;;;7.63;6.05;;;;;;;11.36;100.00;101030.09;694200;28;1424;-66
2022/10/05 02:10:22;;;;;;;7.95;6.03;;;;;;;11.35;100.00;101024.88;696345;28;4987;-67
2022/10/05 02:10:58;;;;;;;8.90;6.38;;;;;;;11.50;100.00;101027.44;697284;28;1295;-67
2022/10/05 02:11:20;;;;;;;10.55;6.45;;;;;;;11.46;100.00;101023.09;697233;28;1307;-67
2022/10/05 02:11:47;;;;;;;9.48;6.20;;;;;;;11.44;100.00;101026.59;694013;28;1378;-67
2022/10/05 02:12:18;;;;;;;10.00;6.45;;;;;;;11.41;100.00;101028.34;694364;28;1614;-67
2022/10/05 02:12:41;;;;;;;8.77;6.32;;;;;;;11.53;100.00;101024.84;692153;28;1680;-65
2022/10/05 02:13:11;;;;;;;7.63;6.07;;;;;;;11.47;100.00;101027.47;691035;28;4443;-66
2022/10/05 02:14:10;;;;;;;8.65;6.28;;;;;;;11.37;100.00;101017.91;692732;28;1857;-67
2022/10/05 02:14:40;;;;;;;9.13;6.30;;;;;;;11.31;100.00;101024.03;687999;28;1325;-66
2022/10/05 02:15:10;;;;;;;8.88;6.32;;;;;;;11.28;100.00;101018.78;691746;28;1229;-66
2022/10/05 02:15:45;;;;;;;8.63;6.40;;;;;;;11.24;100.00;101012.69;689713;28;1244;-67
2022/10/05 02:16:14;;;;;;;9.88;6.50;;;;;;;11.30;100.00;101022.28;690168;28;4548;-67
2022/10/05 02:16:47;;;;;;;9.13;6.28;;;;;;;11.30;100.00;101017.03;689859;28;1243;-67
2022/10/05 02:17:13;;;;;;;8.35;6.32;;;;;;;11.30;100.00;101018.75;689154;28;1272;-66
2022/10/05 02:17:40;;;;;;;10.15;5.93;;;;;;;11.32;100.00;101017.88;687877;28;1402;-66
2022/10/05 02:18:16;;;;;;;9.38;5.97;;;;;;;11.38;100.00;101019.63;687804;28;1475;-67
2022/10/05 02:19:00;;;;;;;8.07;6.10;;;;;;;11.39;100.00;101013.53;691635;28;1373;-66
2022/10/05 02:19:37;;;;;;;8.20;6.10;;;;;;;11.36;100.00;101011.78;687083;28;4989;-66
2022/10/05 02:20:04;;;;;;;8.57;6.32;;;;;;;11.34;100.00;101017.88;698108;28;1515;-67
2022/10/05 02:20:30;;;;;;;9.35;6.35;;;;;;;11.30;100.00;101011.81;696237;28;1474;-67
2022/10/05 02:20:55;;;;;;;10.27;6.57;;;;;;;11.27;100.00;101017.06;697374;28;1278;-66
2022/10/05 02:21:18;;;;;;;8.25;5.90;;;;;;;11.23;100.00;101013.56;695065;28;1391;-67
2022/10/05 02:21:42;;;;;;;9.68;5.82;;;;;;;11.21;100.00;101014.44;690676;28;2092;-66
2022/10/05 02:22:16;;;;;;;8.10;5.80;;;;;;;11.19;100.00;101013.56;691965;28;4364;-67
2022/10/05 02:22:45;;;;;;;7.32;5.75;;;;;;;11.19;100.00;101016.19;689848;28;1434;-67
2022/10/05 02:23:16;;;;;;;9.00;6.40;;;;;;;11.19;100.00;101014.44;686485;28;1248;-65
2022/10/05 02:23:39;;;;;;;8.63;5.75;;;;;;;11.27;100.00;101016.16;689709;28;1887;-67
2022/10/05 02:24:06;;;;;;;8.73;6.32;;;;;;;11.33;100.00;101016.16;687910;28;1258;-68
2022/10/05 02:24:37;;;;;;;9.13;6.60;;;;;;;11.40;100.00;101012.66;686875;28;1301;-66
2022/10/05 02:25:06;;;;;;;8.90;5.90;;;;;;;11.38;100.00;101014.38;688145;28;4400;-65
2022/10/05 02:25:32;;;;;;;9.18;6.07;;;;;;;11.31;100.00;101016.16;687872;28;1345;-66
2022/10/05 02:25:54;;;;;;;8.25;5.90;;;;;;;11.46;100.00;101028.31;690365;28;1077;-66
2022/10/05 02:26:17;;;;;;;8.77;5.95;;;;;;;11.44;100.00;101019.63;690884;28;1471;-66
2022/10/05 02:26:39;;;;;;;7.72;6.20;;;;;;;11.41;100.00;101017.88;688660;28;1517;-66
2022/10/05 02:27:02;;;;;;;8.40;6.22;;;;;;;11.39;100.00;101017.03;688894;28;1370;-67
2022/10/05 02:27:29;;;;;;;8.30;5.63;;;;;;;11.42;100.00;101016.13;694325;28;1326;-67